nws-alerts: Checking more than four warning/county codes can delay the loading of your pages. You should use a cron job to get the data.

Nearby METAR Reports

 

KFCI - Richmond/Chester, Virginia, USA
Distance from station: ESE 7mi, 11km
Updated: Sun, 05-Feb-2023 8:56am EST
Clear
Clear
 Wind from SSW
Wind: SSW 9 mph , 15 km/h
Temperature: 34°F , 1°C
Wind Chill: 27°F , -3°C
Dew Point: 16°F , -9°C
Humidity: 48%
Barometer: 30.35 inHg , 1027.8 hPa
Clouds: Clear
Visibility: 10 miles , 16 km
2023/02/05 13:56 KFCI 051356Z AUTO 20008KT 10SM CLR 01/M09 A3035 RMK AO2 SLP291 T00111089 FZRANO
KRIC - Richmond, Virginia, USA
Distance from station: ENE 19mi, 30km
Updated: Sun, 05-Feb-2023 8:54am EST
Mostly cloudy
Mostly cloudy
 Wind from SSW
Wind: SSW 10 mph , 17 km/h
Temperature: 36°F , 2°C
Wind Chill: 29°F , -2°C
Dew Point: 18°F , -8°C
Humidity: 48%
Barometer: 30.35 inHg , 1027.8 hPa
Clouds: Mostly cloudy
Visibility: 10 miles , 16 km
Cloud details: Mostly cloudy 30000 ft
2023/02/05 13:54 KRIC 051354Z 20009KT 10SM BKN300 02/M08 A3035 RMK AO2 SLP283 T00171083
 
KPTB - Petersburg, Virginia, USA
Distance from station: SSE 19mi, 31km
Updated: Sun, 05-Feb-2023 8:55am EST
Clear
Clear
 Wind from calm
Wind: Calm
Temperature: 32°F , 0°C
Dew Point: 16°F , -9°C
Humidity: 51%
Barometer: 30.37 inHg , 1028.4 hPa
Clouds: Clear
Visibility: 10 miles , 16 km
2023/02/05 13:55 KPTB 051355Z AUTO 00000KT 10SM CLR 00/M09 A3037 RMK AO2 T00001092
KOFP - Richmond/Hanover, Virginia, USA
Distance from station: NNE 22mi, 36km
Updated: Sun, 05-Feb-2023 8:54am EST
Clear
Clear
 Wind from S
Wind: S 9 mph , 15 km/h
Temperature: 36°F , 2°C
Wind Chill: 29°F , -2°C
Dew Point: 18°F , -8°C
Humidity: 48%
Barometer: 30.34 inHg , 1027.4 hPa
Clouds: Clear
Visibility: 10 miles , 16 km
2023/02/05 13:54 KOFP 051354Z AUTO 18008KT 10SM CLR 02/M08 A3034 RMK AO2 SLP275 T00221078
 
KW96 - Quinton, Virginia, USA
Distance from station: E 28mi, 46km
Updated: Sun, 05-Feb-2023 8:55am EST
Clear
Clear
 Wind from SSW
Wind: SSW 6 mph , 9 km/h
Temperature: 34°F , 1°C
Wind Chill: 29°F , -2°C
Dew Point: 16°F , -9°C
Humidity: 48%
Barometer: 30.35 inHg , 1027.8 hPa
Clouds: Clear
Visibility: 10 miles , 16 km
2023/02/05 13:55 KW96 051355Z AUTO 20005KT 10SM CLR 01/M09 A3035 RMK AO1 T00131088
KBKT - Blackstone Army, Virginia, USA
Distance from station: SW 30mi, 48km
Updated: Sun, 05-Feb-2023 8:55am EST
Mostly cloudy
Mostly cloudy
 Wind from SSW
Wind: SSW 9 mph , 15 km/h
Temperature: 36°F , 2°C
Wind Chill: 29°F , -2°C
Dew Point: 19°F , -7°C
Humidity: 52%
Barometer: 30.32 inHg , 1026.8 hPa
Clouds: Mostly cloudy
Visibility: 10 miles , 16 km
Cloud details: Mostly cloudy 21000 ft
Mostly cloudy 23000 ft
2023/02/05 13:55 KBKT 051355Z AUTO 20008KT 10SM BKN210 BKN230 02/M07 A3032 RMK AO2 PRESFR SLP275 T00161075
 
KW81 - Crewe, Virginia, USA
Distance from station: SW 30mi, 49km
Updated: Sun, 05-Feb-2023 8:55am EST
Clear
Clear
 Wind from S
Wind: S 5 mph , 7 km/h
Temperature: 36°F , 2°C
Wind Chill: 32°F , 0°C
Dew Point: 12°F , -11°C
Humidity: 38%
Barometer: 30.33 inHg , 1027.1 hPa
Clouds: Clear
Visibility: 10 miles , 16 km
2023/02/05 13:55 KW81 051355Z AUTO 19004KT 10SM CLR 02/M11 A3033 RMK AO1 T00161114
K7W4 - Bumpass, Virginia, USA
Distance from station: N 38mi, 61km
Updated: Sun, 05-Feb-2023 8:55am EST
Clear
Clear
 Wind from SSW
Wind: SSW 6 mph , 9 km/h
Temperature: 36°F , 2°C
Wind Chill: 31°F , -1°C
Dew Point: 18°F , -8°C
Humidity: 48%
Barometer: 30.29 inHg , 1025.7 hPa
Clouds: Clear
Visibility: 10 miles , 16 km
2023/02/05 13:55 K7W4 051355Z AUTO 21005KT 10SM CLR 02/M08 A3029 RMK AO1 T00241079
 
KFVX - Farmville, Virginia, USA
Distance from station: W 43mi, 69km
Updated: Sun, 05-Feb-2023 8:55am EST
Clear
Clear
 Wind from SSW
Wind: SSW 6 mph , 9 km/h
Temperature: 34°F , 1°C
Wind Chill: 29°F , -2°C
Dew Point: 18°F , -8°C
Humidity: 51%
Barometer: 30.31 inHg , 1026.4 hPa
Clouds: Clear
Visibility: 10 miles , 16 km
2023/02/05 13:55 KFVX 051355Z AUTO 20005KT 10SM CLR 01/M08 A3031 RMK AO2 T00121077
KW31 - Kenbridge, Virginia, USA
Distance from station: SW 43mi, 70km
Updated: Sun, 05-Feb-2023 8:55am EST
Clear
Clear
 Wind from SSW
Wind: SSW 5 mph , 7 km/h
Temperature: 32°F , 0°C
Wind Chill: 27°F , -3°C
Dew Point: 18°F , -8°C
Humidity: 55%
Barometer: 30.34 inHg , 1027.4 hPa
Clouds: Clear
Visibility: 10 miles , 16 km
2023/02/05 13:55 KW31 051355Z AUTO 20004KT 10SM CLR 00/M08 A3034 RMK AO1 T00031078
 
KLKU - Louisa, Virginia, USA
Distance from station: NNW 44mi, 72km
Updated: Sun, 05-Feb-2023 8:55am EST
Clear
Clear
 Wind from SSW
Wind: SSW 8 mph , 13 km/h
Temperature: 36°F , 2°C
Wind Chill: 30°F , -1°C
Dew Point: 18°F , -8°C
Humidity: 48%
Barometer: 30.28 inHg , 1025.4 hPa
Clouds: Clear
Visibility: 10 miles , 16 km
2023/02/05 13:55 KLKU 051355Z AUTO 20007KT 150V240 10SM CLR 02/M08 A3028 RMK AO2 T00201085
KLVL - Lawrenceville, Virginia, USA
Distance from station: S 46mi, 75km
Updated: Sun, 05-Feb-2023 8:55am EST
Clear
Clear
 Wind from SW
Wind: SW 5 mph , 7 km/h
Temperature: 37°F , 3°C
Wind Chill: 33°F , 1°C
Dew Point: 19°F , -7°C
Humidity: 48%
Barometer: 30.37 inHg , 1028.4 hPa
Clouds: Clear
Visibility: 10 miles , 16 km
2023/02/05 13:55 KLVL 051355Z AUTO 22004KT 10SM CLR 03/M07 A3037 RMK AO1 T00251075
 
KAKQ - Norfolk/Wakefld, Virginia, USA
Distance from station: SE 47mi, 75km
Updated: Sun, 05-Feb-2023 8:54am EST
Clear
Clear
 Wind from SW
Wind: SW 5 mph , 7 km/h
Temperature: 37°F , 3°C
Wind Chill: 33°F , 1°C
Dew Point: 18°F , -8°C
Humidity: 45%
Barometer: 30.37 inHg , 1028.4 hPa
Clouds: Clear
Visibility: 10 miles , 16 km
2023/02/05 13:54 KAKQ 051354Z AUTO 23004KT 10SM CLR 03/M08 A3037 RMK AO2 SLP288 T00281078
KFYJ - West Point, Virginia, USA
Distance from station: E 48mi, 78km
Updated: Sun, 05-Feb-2023 8:55am EST
Clear
Clear
 Wind from calm
Wind: Calm
Temperature: 37°F , 3°C
Dew Point: 18°F , -8°C
Humidity: 45%
Barometer: 30.37 inHg , 1028.4 hPa
Clouds: Clear
Visibility: 10 miles , 16 km
2023/02/05 13:55 KFYJ 051355Z AUTO 00000KT 10SM CLR 03/M08 A3037 RMK AO1 T00281080